Time;durP1;ratioP1;P1;durP2;ratioP2;P2;SDS_P1;SDS_P2;PMS_P1;PMS_P2;Temp;Humidity;BMP_temperature;BMP_pressure;BME280_temperature;BME280_humidity;BME280_pressure;Samples;Min_cycle;Max_cycle;Signal;HPM_P1;HPM_P2
2023/06/18 00:02:02;;;;;;;82.80;3.03;;;21.00;25.50;;;;;;4974045;28;20411;-73
2023/06/18 00:04:28;;;;;;;80.20;2.53;;;21.30;25.30;;;;;;4973824;28;20411;-71
2023/06/18 00:06:54;;;;;;;79.83;2.17;;;21.30;25.70;;;;;;4973567;28;20450;-73
2023/06/18 00:09:21;;;;;;;80.87;3.03;;;21.50;25.60;;;;;;4973778;28;20415;-73
2023/06/18 00:11:47;;;;;;;80.43;2.53;;;21.60;24.40;;;;;;4973957;28;20423;-73
2023/06/18 00:14:12;;;;;;;80.27;2.50;;;21.60;23.50;;;;;;4973685;28;20427;-73
2023/06/18 00:16:38;;;;;;;80.80;2.80;;;21.80;23.90;;;;;;4973270;28;20575;-74
2023/06/18 00:19:03;;;;;;;80.37;2.10;;;21.80;23.50;;;;;;4973690;28;20200;-73
2023/06/18 00:21:29;;;;;;;80.07;2.27;;;21.90;23.80;;;;;;4973801;28;20185;-74
2023/06/18 00:23:55;;;;;;;81.33;2.40;;;22.00;23.00;;;;;;4972371;28;20181;-73
2023/06/18 00:26:22;;;;;;;80.47;2.63;;;22.00;23.50;;;;;;4973429;28;20430;-73
2023/06/18 00:28:48;;;;;;;81.33;3.07;;;21.90;23.90;;;;;;4973378;28;20173;-73
2023/06/18 00:31:13;;;;;;;80.27;2.40;;;21.60;23.60;;;;;;4973527;28;20423;-73
2023/06/18 00:33:39;;;;;;;80.87;2.57;;;21.40;24.20;;;;;;4973352;28;20177;-73
2023/06/18 00:36:06;;;;;;;80.67;2.70;;;21.40;24.70;;;;;;4972611;28;20227;-72
2023/06/18 00:38:35;;;;;;;81.20;2.70;;;21.40;24.20;;;;;;4973186;28;20173;-71
2023/06/18 00:41:01;;;;;;;81.87;2.67;;;21.40;24.40;;;;;;4971885;28;20897;-73
2023/06/18 00:43:27;;;;;;;80.93;2.70;;;21.30;24.70;;;;;;4973263;28;20438;-72
2023/06/18 00:45:59;;;;;;;81.07;2.60;;;21.20;24.40;;;;;;4972870;28;20196;-73
2023/06/18 00:48:25;;;;;;;80.70;2.57;;;21.20;24.80;;;;;;4973258;28;20415;-74
2023/06/18 00:50:53;;;;;;;82.33;3.60;;;20.70;24.60;;;;;;4973024;28;20900;-73
2023/06/18 00:53:20;;;;;;;80.30;2.17;;;20.80;25.20;;;;;;4973294;28;20419;-74
2023/06/18 00:55:47;;;;;;;81.40;2.93;;;21.10;24.90;;;;;;4972851;28;20447;-73
2023/06/18 00:58:13;;;;;;;83.40;2.83;;;21.10;25.20;;;;;;4972318;28;20638;-72
2023/06/18 01:00:40;;;;;;;80.80;2.57;;;21.20;24.50;;;;;;4973055;28;20461;-73
2023/06/18 01:03:16;;;;;;;81.40;2.70;;;21.10;25.30;;;;;;4972922;28;20419;-73
2023/06/18 01:05:49;;;;;;;80.83;2.27;;;21.20;25.40;;;;;;4972647;28;20432;-72
2023/06/18 01:08:15;;;;;;;80.97;2.63;;;21.20;25.60;;;;;;4972837;28;20442;-73
2023/06/18 01:10:41;;;;;;;81.33;2.60;;;21.20;24.80;;;;;;4973502;28;20901;-73
2023/06/18 01:13:09;;;;;;;81.33;2.83;;;21.20;25.40;;;;;;4972768;28;20206;-73
2023/06/18 01:15:35;;;;;;;81.10;2.47;;;21.00;25.10;;;;;;4971516;28;20441;-73
2023/06/18 01:18:06;;;;;;;81.07;2.57;;;20.90;25.40;;;;;;4977326;28;20827;-73
2023/06/18 01:20:40;;;;;;;82.50;2.83;;;20.90;26.20;;;;;;4972928;28;20467;-73
2023/06/18 01:23:15;;;;;;;81.30;2.60;;;20.90;25.60;;;;;;4971676;28;20925;-73
2023/06/18 01:25:43;;;;;;;81.67;2.53;;;20.80;25.20;;;;;;4972371;28;20451;-74
2023/06/18 01:28:10;;;;;;;81.37;2.60;;;20.70;27.10;;;;;;4972853;28;20425;-73
2023/06/18 01:30:36;;;;;;;81.37;2.67;;;20.60;26.40;;;;;;4972993;28;20466;-73
2023/06/18 01:33:03;;;;;;;81.47;2.67;;;20.60;26.40;;;;;;4972708;28;20425;-73
2023/06/18 01:35:29;;;;;;;81.67;2.80;;;20.50;26.70;;;;;;4972776;28;20829;-73
2023/06/18 01:37:58;;;;;;;82.20;2.27;;;20.50;26.30;;;;;;4972266;28;20421;-73
2023/06/18 01:40:32;;;;;;;81.70;2.60;;;20.60;26.40;;;;;;4972702;28;20457;-74
2023/06/18 01:43:11;;;;;;;82.20;2.83;;;20.60;26.80;;;;;;4972878;28;20399;-74
2023/06/18 01:45:45;;;;;;;81.00;2.30;;;20.60;26.40;;;;;;4972333;28;20962;-73
2023/06/18 01:48:12;;;;;;;81.57;2.57;;;20.50;27.10;;;;;;4972636;28;20406;-73
2023/06/18 01:50:42;;;;;;;81.47;2.90;;;20.50;26.90;;;;;;4972618;28;20426;-73
2023/06/18 01:53:10;;;;;;;81.87;2.80;;;20.30;27.30;;;;;;4972748;28;20950;-74
2023/06/18 01:55:37;;;;;;;81.00;2.40;;;20.40;27.10;;;;;;4972113;28;20958;-74
2023/06/18 01:58:03;;;;;;;81.33;2.73;;;20.40;27.20;;;;;;4972563;28;20904;-73
2023/06/18 02:00:29;;;;;;;81.80;2.53;;;20.40;26.90;;;;;;4973087;28;20511;-72
2023/06/18 02:02:54;;;;;;;84.20;3.90;;;20.50;26.70;;;;;;4972500;28;20202;-73
2023/06/18 02:05:20;;;;;;;81.07;2.43;;;20.50;27.10;;;;;;4971889;28;20202;-73
2023/06/18 02:07:45;;;;;;;81.30;2.43;;;20.30;27.50;;;;;;4972097;28;20177;-74
2023/06/18 02:10:11;;;;;;;81.80;2.93;;;20.30;27.30;;;;;;4974990;28;20178;-73
2023/06/18 02:12:37;;;;;;;80.87;2.17;;;20.10;27.70;;;;;;4975951;28;20205;-72
2023/06/18 02:15:02;;;;;;;86.90;3.33;;;20.30;28.50;;;;;;4975734;28;20503;-73
2023/06/18 02:17:28;;;;;;;84.13;3.10;;;19.90;28.20;;;;;;4975393;28;20189;-73
2023/06/18 02:19:54;;;;;;;82.30;2.40;;;19.80;28.40;;;;;;4975914;28;20233;-73
2023/06/18 02:22:22;;;;;;;81.30;2.30;;;20.20;28.50;;;;;;4976285;28;20176;-73
2023/06/18 02:24:48;;;;;;;82.03;2.93;;;19.80;28.00;;;;;;4975639;28;20490;-73
2023/06/18 02:27:13;;;;;;;81.70;2.33;;;19.90;27.80;;;;;;4975635;28;20437;-72
2023/06/18 02:29:41;;;;;;;81.90;2.30;;;19.70;28.10;;;;;;4975745;28;20551;-74
2023/06/18 02:32:06;;;;;;;81.50;2.40;;;19.70;28.30;;;;;;4975813;28;20602;-73
2023/06/18 02:34:32;;;;;;;82.77;2.80;;;19.70;28.80;;;;;;4975632;28;20448;-73
2023/06/18 02:36:58;;;;;;;81.77;2.50;;;19.60;28.80;;;;;;4975627;28;20586;-73
2023/06/18 02:39:23;;;;;;;82.60;3.13;;;19.70;28.90;;;;;;4975806;28;20207;-74
2023/06/18 02:41:49;;;;;;;81.73;2.37;;;19.60;28.70;;;;;;4975773;28;20259;-74
2023/06/18 02:44:14;;;;;;;81.63;2.10;;;19.40;29.70;;;;;;4975704;28;20222;-73
2023/06/18 02:46:40;;;;;;;82.57;2.53;;;19.40;29.30;;;;;;4975002;28;20216;-73
2023/06/18 02:49:05;;;;;;;82.27;2.87;;;19.90;29.10;;;;;;4975440;28;20187;-74
2023/06/18 02:51:31;;;;;;;81.83;2.37;;;19.60;28.50;;;;;;4975500;28;20665;-73
2023/06/18 02:53:59;;;;;;;81.77;2.43;;;19.90;28.80;;;;;;4975518;28;20550;-73
2023/06/18 02:56:28;;;;;;;83.90;2.97;;;19.70;28.70;;;;;;4974752;28;20430;-73
2023/06/18 02:58:56;;;;;;;81.67;2.27;;;19.70;28.80;;;;;;4975206;28;20823;-73
2023/06/18 03:01:23;;;;;;;81.50;2.00;;;19.60;29.30;;;;;;4973878;28;20394;-73
2023/06/18 03:03:49;;;;;;;83.00;2.53;;;19.50;29.30;;;;;;4975204;28;20493;-73
2023/06/18 03:06:15;;;;;;;82.13;2.43;;;19.30;28.70;;;;;;4974463;28;20428;-73
2023/06/18 03:08:41;;;;;;;81.97;2.33;;;19.80;28.40;;;;;;4974948;28;20419;-72
2023/06/18 03:11:06;;;;;;;82.07;2.10;;;19.50;28.50;;;;;;4975055;28;20169;-72
2023/06/18 03:13:32;;;;;;;82.17;2.20;;;19.50;28.20;;;;;;4974981;28;20173;-73
2023/06/18 03:15:57;;;;;;;82.40;2.30;;;19.70;29.00;;;;;;4974260;28;20670;-73
2023/06/18 03:18:23;;;;;;;82.50;2.43;;;19.60;28.50;;;;;;4974916;28;20202;-72
2023/06/18 03:20:49;;;;;;;85.27;2.77;;;19.60;28.70;;;;;;4974160;28;20204;-73
2023/06/18 03:23:15;;;;;;;83.10;2.77;;;19.90;28.70;;;;;;4974916;28;20417;-73
2023/06/18 03:25:41;;;;;;;82.67;2.33;;;19.60;28.30;;;;;;4974230;28;20441;-73
2023/06/18 03:28:06;;;;;;;81.90;2.20;;;19.70;28.50;;;;;;4974649;28;20172;-73
2023/06/18 03:30:32;;;;;;;82.07;2.40;;;19.80;28.90;;;;;;4974513;28;20403;-73
2023/06/18 03:33:01;;;;;;;82.70;2.70;;;19.80;28.30;;;;;;4975861;28;20178;-74
2023/06/18 03:35:27;;;;;;;82.27;2.40;;;20.00;29.00;;;;;;4973390;28;20469;-73
2023/06/18 03:37:52;;;;;;;82.87;2.43;;;19.60;28.90;;;;;;4974232;28;20823;-74
2023/06/18 03:40:18;;;;;;;83.40;2.70;;;19.60;28.40;;;;;;4974287;28;20252;-74
2023/06/18 03:42:43;;;;;;;85.57;3.50;;;19.50;28.50;;;;;;4974381;28;20539;-73
2023/06/18 03:45:09;;;;;;;82.10;2.50;;;19.70;29.00;;;;;;4974508;28;20184;-73
2023/06/18 03:47:35;;;;;;;82.90;2.70;;;19.40;28.80;;;;;;4974410;28;20171;-73
2023/06/18 03:50:01;;;;;;;82.00;2.40;;;19.30;28.20;;;;;;4974268;28;20414;-74
2023/06/18 03:52:26;;;;;;;82.30;2.50;;;19.50;28.50;;;;;;4974106;28;20180;-73
2023/06/18 03:54:52;;;;;;;82.40;2.50;;;19.50;29.00;;;;;;4973986;28;20642;-74
2023/06/18 03:57:18;;;;;;;82.23;2.33;;;19.00;28.60;;;;;;4974118;28;20208;-73
2023/06/18 03:59:43;;;;;;;82.17;2.33;;;19.00;29.20;;;;;;4972825;28;20285;-73
2023/06/18 04:02:09;;;;;;;83.07;2.80;;;19.20;29.00;;;;;;4974124;28;20195;-74
2023/06/18 04:04:35;;;;;;;82.03;2.40;;;18.70;28.50;;;;;;4973797;28;20524;-73
2023/06/18 04:07:01;;;;;;;81.90;2.20;;;19.10;28.70;;;;;;4973620;28;20692;-74
2023/06/18 04:09:26;;;;;;;82.50;2.60;;;19.40;28.80;;;;;;4973994;28;20180;-74
2023/06/18 04:11:54;;;;;;;82.83;2.73;;;19.10;28.50;;;;;;4974223;28;20405;-75
2023/06/18 04:14:20;;;;;;;82.27;2.40;;;19.20;28.40;;;;;;4974342;28;20577;-74
2023/06/18 04:16:46;;;;;;;82.17;2.40;;;19.30;28.50;;;;;;4973736;28;20487;-74
2023/06/18 04:19:11;;;;;;;82.37;2.40;;;19.30;28.60;;;;;;4974202;28;20982;-75
2023/06/18 04:21:38;;;;;;;82.07;2.40;;;19.30;28.60;;;;;;4973929;28;20417;-74
2023/06/18 04:24:05;;;;;;;82.30;2.43;;;19.40;28.30;;;;;;4973756;28;20700;-74
2023/06/18 04:26:30;;;;;;;82.67;2.60;;;19.40;28.80;;;;;;4973275;28;20856;-73
2023/06/18 04:28:56;;;;;;;82.70;2.80;;;19.80;28.70;;;;;;4973434;28;20414;-73
2023/06/18 04:31:21;;;;;;;82.20;2.37;;;19.60;28.90;;;;;;4973648;28;20639;-74
2023/06/18 04:33:47;;;;;;;82.47;2.53;;;19.80;28.80;;;;;;4972991;28;20171;-74
2023/06/18 04:36:14;;;;;;;82.40;2.43;;;20.10;28.50;;;;;;4989850;23;20216;-72
2023/06/18 04:38:40;;;;;;;82.93;2.60;;;19.80;28.20;;;;;;4966602;28;20184;-70
2023/06/18 04:41:05;;;;;;;82.50;2.40;;;19.90;28.40;;;;;;4953786;29;20461;-70
2023/06/18 04:43:31;;;;;;;82.20;2.37;;;19.90;28.80;;;;;;4953988;29;20189;-70
2023/06/18 04:45:57;;;;;;;82.40;2.43;;;20.00;28.50;;;;;;4953568;29;20178;-70
2023/06/18 04:48:22;;;;;;;82.13;2.20;;;20.00;29.10;;;;;;4953520;29;20194;-70
2023/06/18 04:50:48;;;;;;;82.53;2.43;;;20.00;28.20;;;;;;4954137;29;20181;-70
2023/06/18 04:53:14;;;;;;;82.97;2.60;;;20.00;28.30;;;;;;4952244;29;20190;-70
2023/06/18 04:55:40;;;;;;;83.10;2.77;;;20.20;28.30;;;;;;4953475;28;20181;-70
2023/06/18 04:58:06;;;;;;;82.47;2.40;;;20.30;28.30;;;;;;4953529;28;20282;-70
2023/06/18 05:00:33;;;;;;;82.47;2.77;;;20.30;28.40;;;;;;4953660;29;20547;-70
2023/06/18 05:02:59;;;;;;;83.23;2.60;;;20.20;28.90;;;;;;4953590;28;20166;-70
2023/06/18 05:05:25;;;;;;;86.10;3.90;;;20.50;29.00;;;;;;4953208;28;20441;-71
2023/06/18 05:07:51;;;;;;;82.80;2.40;;;20.30;28.80;;;;;;4953162;29;20470;-70
2023/06/18 05:10:16;;;;;;;83.20;2.73;;;20.40;28.90;;;;;;4953619;28;20209;-70
2023/06/18 05:12:42;;;;;;;86.33;3.00;;;20.40;27.50;;;;;;4953592;29;20182;-70
2023/06/18 05:15:08;;;;;;;82.77;2.53;;;20.60;28.40;;;;;;4953173;29;20187;-70
2023/06/18 05:17:35;;;;;;;82.93;2.67;;;20.50;28.10;;;;;;4953349;29;20245;-70
2023/06/18 05:20:03;;;;;;;83.40;2.73;;;20.30;28.30;;;;;;4953583;28;20210;-70
2023/06/18 05:22:29;;;;;;;82.40;2.40;;;20.40;28.30;;;;;;4953303;28;20427;-70
2023/06/18 05:24:55;;;;;;;83.37;2.87;;;20.70;29.10;;;;;;4953141;29;20790;-70
2023/06/18 05:27:20;;;;;;;82.67;2.50;;;20.80;28.70;;;;;;4953265;28;20191;-70
2023/06/18 05:29:46;;;;;;;85.70;3.67;;;20.80;27.10;;;;;;4953242;28;20412;-70
2023/06/18 05:32:12;;;;;;;82.70;2.60;;;20.70;27.90;;;;;;4953469;29;20203;-73
2023/06/18 05:34:37;;;;;;;82.50;2.40;;;20.80;27.50;;;;;;4952985;29;20217;-79
2023/06/18 05:37:03;;;;;;;82.70;2.50;;;20.80;27.40;;;;;;4951472;29;20248;-70
2023/06/18 05:39:28;;;;;;;82.83;2.73;;;21.00;28.10;;;;;;4953302;29;20207;-73
2023/06/18 05:41:54;;;;;;;82.80;2.50;;;20.90;26.90;;;;;;4953332;28;20223;-71
2023/06/18 05:44:19;;;;;;;85.47;2.83;;;21.10;27.20;;;;;;4954310;28;20172;-70
2023/06/18 05:46:45;;;;;;;82.63;2.30;;;21.30;26.90;;;;;;4956678;29;20292;-70
2023/06/18 05:49:11;;;;;;;84.27;3.50;;;21.40;27.00;;;;;;4956878;29;20248;-70
2023/06/18 05:51:36;;;;;;;83.37;3.00;;;21.50;26.90;;;;;;4956782;29;20252;-70
2023/06/18 05:54:02;;;;;;;84.50;3.10;;;21.60;26.50;;;;;;4956885;29;20297;-74
2023/06/18 05:56:28;;;;;;;85.07;3.10;;;21.50;26.10;;;;;;4956473;29;20209;-70
2023/06/18 05:58:54;;;;;;;83.50;3.23;;;21.50;26.30;;;;;;4956763;29;20317;-70
2023/06/18 06:01:19;;;;;;;82.87;2.50;;;21.30;26.10;;;;;;4956684;28;20181;-70
2023/06/18 06:03:45;;;;;;;83.27;2.80;;;20.90;26.60;;;;;;4956643;29;20410;-70
2023/06/18 06:06:11;;;;;;;83.97;2.57;;;21.20;26.80;;;;;;4956473;29;20205;-71
2023/06/18 06:08:36;;;;;;;82.77;2.60;;;21.40;27.30;;;;;;4956086;29;20173;-71
2023/06/18 06:11:02;;;;;;;82.30;2.30;;;21.40;26.60;;;;;;4956712;28;20217;-71
2023/06/18 06:13:28;;;;;;;85.50;3.10;;;21.60;27.10;;;;;;4956256;28;20726;-71
2023/06/18 06:15:53;;;;;;;83.10;2.77;;;21.40;26.10;;;;;;4956361;29;20189;-71
2023/06/18 06:18:19;;;;;;;82.83;2.60;;;21.20;26.80;;;;;;4956349;29;20198;-72
2023/06/18 06:20:44;;;;;;;82.40;2.33;;;20.90;26.60;;;;;;4956400;29;20280;-70
2023/06/18 06:23:10;;;;;;;82.30;2.30;;;21.00;26.70;;;;;;4954801;29;20694;-71
2023/06/18 06:25:36;;;;;;;82.67;2.70;;;20.70;27.00;;;;;;4956071;28;20648;-71
2023/06/18 06:28:02;;;;;;;82.67;2.63;;;20.90;26.60;;;;;;4956211;29;20208;-71
2023/06/18 06:30:27;;;;;;;82.40;2.30;;;21.40;27.00;;;;;;4956300;28;20182;-70
2023/06/18 06:32:53;;;;;;;82.80;2.77;;;21.60;26.00;;;;;;4956216;29;20988;-72
2023/06/18 06:35:19;;;;;;;83.07;2.83;;;21.60;25.10;;;;;;4955919;29;20183;-71
2023/06/18 06:37:44;;;;;;;82.97;2.70;;;21.40;25.50;;;;;;4955282;29;20206;-71
2023/06/18 06:40:10;;;;;;;83.80;3.17;;;21.60;25.40;;;;;;4956005;29;20202;-71
2023/06/18 06:42:36;;;;;;;82.67;2.97;;;22.00;26.00;;;;;;4956024;29;20175;-71
2023/06/18 06:45:02;;;;;;;82.17;2.50;;;22.30;25.50;;;;;;4955737;29;20409;-73
2023/06/18 06:47:28;;;;;;;82.57;2.70;;;21.80;24.80;;;;;;4955753;28;20246;-71
2023/06/18 06:49:54;;;;;;;83.53;2.90;;;21.90;25.30;;;;;;4955748;28;20421;-72
2023/06/18 06:52:19;;;;;;;83.53;3.03;;;22.30;24.30;;;;;;4955752;29;20590;-70
2023/06/18 06:54:47;;;;;;;82.60;2.77;;;21.70;25.60;;;;;;4955504;28;20209;-70
2023/06/18 06:57:12;;;;;;;82.80;2.53;;;21.80;25.90;;;;;;4954712;28;20197;-71
2023/06/18 06:59:38;;;;;;;85.50;3.00;;;22.20;25.50;;;;;;4955640;28;20565;-71
2023/06/18 07:02:03;;;;;;;84.60;3.70;;;22.40;24.90;;;;;;4955575;29;20179;-70
2023/06/18 07:04:29;;;;;;;82.77;3.10;;;22.40;24.40;;;;;;4955575;29;20473;-70
2023/06/18 07:06:55;;;;;;;81.83;2.47;;;22.20;24.50;;;;;;4955262;28;20195;-70
2023/06/18 07:09:20;;;;;;;84.90;3.43;;;22.50;24.40;;;;;;4955245;29;20254;-71
2023/06/18 07:11:46;;;;;;;82.27;2.63;;;22.70;24.50;;;;;;4955626;29;20555;-74
2023/06/18 07:14:11;;;;;;;84.27;3.30;;;22.40;24.60;;;;;;4955096;29;20192;-73
2023/06/18 07:16:37;;;;;;;82.30;3.03;;;22.40;24.90;;;;;;4955137;29;20227;-70
2023/06/18 07:19:03;;;;;;;82.27;3.00;;;22.60;25.00;;;;;;4955643;28;20183;-71
2023/06/18 07:21:29;;;;;;;82.60;2.77;;;22.30;23.60;;;;;;4955290;28;20163;-71
2023/06/18 07:23:55;;;;;;;81.80;2.83;;;22.50;24.00;;;;;;4954984;28;20496;-71
2023/06/18 07:26:21;;;;;;;81.97;3.03;;;23.30;24.40;;;;;;4955451;28;20507;-71
2023/06/18 07:28:46;;;;;;;82.93;2.80;;;23.60;21.80;;;;;;4955007;29;20426;-71
2023/06/18 07:31:12;;;;;;;81.57;2.77;;;23.60;22.70;;;;;;4955143;29;20254;-71
2023/06/18 07:33:38;;;;;;;82.90;3.40;;;23.90;22.20;;;;;;4955020;29;20698;-71
2023/06/18 07:36:03;;;;;;;81.87;2.67;;;24.00;22.90;;;;;;4954908;29;20201;-71
2023/06/18 07:38:29;;;;;;;82.60;3.23;;;24.30;21.30;;;;;;4954603;29;20261;-71
2023/06/18 07:40:55;;;;;;;81.97;2.60;;;23.90;21.80;;;;;;4955137;28;20200;-73
2023/06/18 07:43:20;;;;;;;81.20;2.47;;;24.00;22.10;;;;;;4955084;28;20670;-70
2023/06/18 07:45:46;;;;;;;82.57;3.03;;;23.80;22.30;;;;;;4954673;29;20254;-71
2023/06/18 07:48:12;;;;;;;82.57;2.97;;;24.30;22.30;;;;;;4954657;29;20194;-71
2023/06/18 07:50:37;;;;;;;82.80;3.40;;;24.20;21.90;;;;;;4954745;29;20175;-71
2023/06/18 07:53:03;;;;;;;82.97;3.00;;;24.10;22.10;;;;;;4954575;29;20183;-74
2023/06/18 07:55:29;;;;;;;81.07;2.67;;;24.60;21.60;;;;;;4954257;28;20203;-74
2023/06/18 07:57:55;;;;;;;82.27;3.23;;;24.30;21.30;;;;;;4954809;28;20441;-71
2023/06/18 08:00:21;;;;;;;82.07;3.27;;;24.20;20.90;;;;;;4954263;28;20561;-71
2023/06/18 08:02:47;;;;;;;81.77;2.63;;;24.80;20.90;;;;;;4954681;29;20493;-71
2023/06/18 08:05:13;;;;;;;81.70;2.97;;;24.80;20.80;;;;;;4954253;29;20172;-71
2023/06/18 08:07:39;;;;;;;80.97;2.93;;;24.50;21.00;;;;;;4953801;28;20199;-71
2023/06/18 08:10:06;;;;;;;80.47;2.70;;;24.60;21.10;;;;;;4954466;28;20406;-70
2023/06/18 08:12:32;;;;;;;80.40;2.70;;;24.90;20.40;;;;;;4954458;28;20425;-75
2023/06/18 08:14:58;;;;;;;80.77;2.90;;;25.10;20.60;;;;;;4954047;28;20426;-71
2023/06/18 08:17:23;;;;;;;81.50;3.00;;;24.70;20.50;;;;;;4954121;29;20435;-73
2023/06/18 08:19:49;;;;;;;80.53;2.40;;;24.90;20.90;;;;;;4954106;29;20218;-70
2023/06/18 08:22:16;;;;;;;80.80;2.97;;;24.90;21.60;;;;;;4954307;28;20213;-70
2023/06/18 08:24:42;;;;;;;81.80;3.03;;;25.40;22.10;;;;;;4954287;28;20175;-71
2023/06/18 08:27:07;;;;;;;80.20;2.40;;;24.90;20.90;;;;;;4954065;28;20457;-70
2023/06/18 08:29:34;;;;;;;80.37;2.90;;;25.20;20.90;;;;;;4954351;29;20792;-71
2023/06/18 08:32:04;;;;;;;81.27;2.93;;;25.50;20.30;;;;;;4954248;28;20168;-70
2023/06/18 08:34:31;;;;;;;80.40;2.93;;;25.80;20.40;;;;;;4953962;28;20414;-74
2023/06/18 08:36:57;;;;;;;80.23;2.90;;;25.80;21.00;;;;;;4953681;28;20459;-71
2023/06/18 08:39:22;;;;;;;80.60;2.90;;;26.40;21.30;;;;;;4953959;29;20450;-71
2023/06/18 08:41:48;;;;;;;80.13;3.20;;;26.40;19.90;;;;;;4954235;29;20575;-70
2023/06/18 08:44:14;;;;;;;80.10;2.93;;;26.20;20.50;;;;;;4954029;29;20245;-70
2023/06/18 08:46:42;;;;;;;80.03;2.70;;;25.60;19.90;;;;;;4953527;28;20262;-71
2023/06/18 08:49:09;;;;;;;81.60;2.90;;;26.20;19.60;;;;;;4953994;28;20163;-70
2023/06/18 08:51:38;;;;;;;80.17;2.93;;;26.80;20.70;;;;;;4953716;28;20403;-71
2023/06/18 08:54:17;;;;;;;79.87;2.73;;;26.60;19.10;;;;;;4953725;28;20402;-71
2023/06/18 08:56:49;;;;;;;80.97;3.30;;;26.70;19.00;;;;;;4953260;28;20537;-70
2023/06/18 08:59:15;;;;;;;80.80;3.40;;;26.60;18.80;;;;;;4953684;28;20797;-71
2023/06/18 09:01:44;;;;;;;79.80;2.60;;;26.50;19.60;;;;;;4953476;29;20478;-74
2023/06/18 09:04:12;;;;;;;80.60;2.90;;;26.90;18.90;;;;;;4953793;28;20207;-70
2023/06/18 09:06:38;;;;;;;80.17;2.83;;;26.90;18.80;;;;;;4952856;28;20430;-70
2023/06/18 09:09:04;;;;;;;78.70;2.50;;;26.90;19.70;;;;;;4953965;28;20438;-71
2023/06/18 09:11:31;;;;;;;81.50;3.70;;;27.00;19.20;;;;;;4953771;28;20419;-70
2023/06/18 09:13:57;;;;;;;80.33;3.00;;;26.80;19.10;;;;;;4953840;28;20422;-74
2023/06/18 09:16:22;;;;;;;79.10;2.70;;;27.10;19.60;;;;;;4953118;29;20440;-70
2023/06/18 09:18:48;;;;;;;79.30;2.93;;;27.80;19.20;;;;;;4954139;28;20267;-70
2023/06/18 09:21:40;;;;;;;79.17;2.83;;;28.30;17.80;;;;;;4957458;29;20226;-71
2023/06/18 09:24:09;;;;;;;78.83;2.60;;;28.50;17.70;;;;;;4955253;28;20202;-70
2023/06/18 09:26:36;;;;;;;79.87;2.90;;;28.90;16.20;;;;;;4956916;28;20434;-71
2023/06/18 09:29:05;;;;;;;79.37;3.00;;;29.20;15.70;;;;;;4957474;28;20501;-73
2023/06/18 09:31:31;;;;;;;78.90;2.87;;;29.30;14.70;;;;;;4957281;28;20935;-71
2023/06/18 09:33:57;;;;;;;78.83;2.60;;;29.40;15.10;;;;;;4957389;28;20442;-70
2023/06/18 09:36:25;;;;;;;78.83;2.80;;;29.60;13.40;;;;;;4956336;29;20517;-72
2023/06/18 09:38:53;;;;;;;78.97;2.70;;;29.80;13.10;;;;;;4957169;28;20630;-70
2023/06/18 09:41:19;;;;;;;78.80;2.90;;;29.40;13.60;;;;;;4956896;28;20584;-70
2023/06/18 09:43:47;;;;;;;78.20;2.50;;;28.90;13.00;;;;;;4957238;29;20506;-71
2023/06/18 09:46:14;;;;;;;78.73;2.90;;;28.40;14.40;;;;;;4956827;28;20659;-73
2023/06/18 09:48:50;;;;;;;78.30;2.90;;;28.40;16.00;;;;;;4957013;28;20449;-72
2023/06/18 09:51:16;;;;;;;78.30;2.93;;;29.10;14.70;;;;;;4956835;28;20445;-70
2023/06/18 09:53:42;;;;;;;80.10;2.80;;;29.20;13.60;;;;;;4956787;28;20513;-71
2023/06/18 09:56:15;;;;;;;82.90;2.93;;;29.60;14.40;;;;;;4956880;29;20498;-74
2023/06/18 09:58:46;;;;;;;78.00;2.87;;;30.30;13.00;;;;;;4956956;28;20546;-71
2023/06/18 10:01:12;;;;;;;78.37;3.07;;;30.30;11.60;;;;;;4956771;28;20876;-71
2023/06/18 10:03:39;;;;;;;77.40;2.70;;;30.40;12.80;;;;;;4957177;28;20502;-70
2023/06/18 10:06:18;;;;;;;80.40;3.03;;;31.00;12.10;;;;;;4956522;28;20418;-71
2023/06/18 10:08:50;;;;;;;77.40;2.70;;;30.30;11.60;;;;;;4956459;28;20430;-71
2023/06/18 10:11:17;;;;;;;77.43;2.80;;;29.90;12.10;;;;;;4956811;28;20410;-71
2023/06/18 10:14:05;;;;;;;82.07;2.80;;;30.50;12.20;;;;;;4956461;28;20418;-74
2023/06/18 10:16:33;;;;;;;78.10;3.23;;;30.20;10.90;;;;;;4955797;28;20446;-75
2023/06/18 10:19:18;;;;;;;76.80;2.30;;;29.50;11.60;;;;;;4955047;29;20505;-75
2023/06/18 10:21:57;;;;;;;76.77;2.80;;;30.00;10.80;;;;;;4956295;28;20433;-71
2023/06/18 10:24:28;;;;;;;76.50;2.53;;;29.60;11.40;;;;;;4956500;28;20509;-71
2023/06/18 10:26:55;;;;;;;76.90;2.80;;;29.00;11.70;;;;;;4956522;28;20842;-72
2023/06/18 10:29:21;;;;;;;77.10;2.87;;;29.70;13.60;;;;;;4956678;28;20480;-72
2023/06/18 10:31:47;;;;;;;76.60;2.83;;;30.20;12.20;;;;;;4956437;28;20909;-72
2023/06/18 10:34:14;;;;;;;76.50;2.73;;;30.70;11.80;;;;;;4956365;29;20465;-76
2023/06/18 10:36:41;;;;;;;77.20;2.93;;;31.30;11.80;;;;;;4980569;23;20199;-71
2023/06/18 10:39:07;;;;;;;76.60;2.70;;;31.30;9.50;;;;;;4975022;28;20422;-71
2023/06/18 10:41:34;;;;;;;75.67;2.40;;;31.50;10.50;;;;;;4975260;28;20488;-70
2023/06/18 10:44:00;;;;;;;76.70;2.87;;;30.70;10.00;;;;;;4975521;28;20656;-71
2023/06/18 10:46:26;;;;;;;76.93;2.70;;;30.90;10.00;;;;;;4975841;28;20420;-70
2023/06/18 10:49:13;;;;;;;75.27;2.30;;;31.20;9.60;;;;;;4994829;28;20170;-70
2023/06/18 10:51:38;;;;;;;76.03;2.90;;;30.20;10.40;;;;;;4995000;28;20783;-71
2023/06/18 10:54:21;;;;;;;75.43;2.70;;;30.30;11.90;;;;;;4994694;28;20401;-71
2023/06/18 10:56:54;;;;;;;74.83;2.30;;;30.30;11.20;;;;;;4994573;28;20201;-71
2023/06/18 10:59:45;;;;;;;76.87;3.00;;;30.70;11.40;;;;;;4994428;28;20408;-72
2023/06/18 11:02:12;;;;;;;75.80;2.63;;;31.90;11.00;;;;;;4994890;28;20413;-71
2023/06/18 11:04:38;;;;;;;75.97;2.90;;;32.60;10.40;;;;;;4994259;28;20605;-71
2023/06/18 11:07:31;;;;;;;76.67;2.87;;;32.80;7.90;;;;;;4994668;28;20433;-71
2023/06/18 11:09:58;;;;;;;75.37;2.60;;;32.90;8.90;;;;;;4990488;28;20424;-71
2023/06/18 11:12:29;;;;;;;75.03;2.67;;;33.10;8.40;;;;;;4994574;28;20925;-70
2023/06/18 11:15:17;;;;;;;79.57;3.10;;;33.30;8.70;;;;;;4993879;28;20447;-71
2023/06/18 11:17:46;;;;;;;74.97;2.53;;;33.70;7.10;;;;;;4994333;28;20432;-71
2023/06/18 11:20:12;;;;;;;75.37;2.70;;;33.80;9.00;;;;;;4994321;28;20454;-71
2023/06/18 11:22:40;;;;;;;75.83;2.77;;;34.00;8.50;;;;;;4994082;28;20496;-71
2023/06/18 11:25:08;;;;;;;75.10;2.87;;;33.00;7.30;;;;;;4994028;28;20435;-70
2023/06/18 11:27:34;;;;;;;74.47;2.50;;;32.10;8.90;;;;;;4994166;28;20479;-71
2023/06/18 11:30:00;;;;;;;75.50;3.20;;;31.70;9.50;;;;;;4994036;28;20775;-71
2023/06/18 11:32:27;;;;;;;74.77;2.90;;;32.70;8.90;;;;;;4993903;28;20409;-72
2023/06/18 11:34:56;;;;;;;75.70;2.50;;;33.90;8.10;;;;;;4993741;28;20420;-71
2023/06/18 11:37:30;;;;;;;76.43;2.57;;;35.20;5.40;;;;;;4994050;28;20479;-71
2023/06/18 11:39:56;;;;;;;74.40;2.70;;;34.00;6.50;;;;;;4976357;28;20452;-70
2023/06/18 11:42:25;;;;;;;73.67;2.50;;;33.80;6.20;;;;;;4993380;28;20404;-71
2023/06/18 11:44:58;;;;;;;73.80;2.60;;;33.90;6.60;;;;;;4993584;28;20451;-71
2023/06/18 11:47:24;;;;;;;73.27;2.40;;;34.30;6.50;;;;;;4993840;28;20444;-71
2023/06/18 11:49:51;;;;;;;73.60;2.60;;;34.40;5.60;;;;;;4993818;28;20447;-71
2023/06/18 11:52:20;;;;;;;73.80;2.63;;;35.90;6.50;;;;;;4993725;28;20229;-72
2023/06/18 11:54:46;;;;;;;73.00;2.30;;;36.70;5.00;;;;;;4993399;28;20504;-71
2023/06/18 11:57:17;;;;;;;73.87;2.40;;;38.00;4.80;;;;;;4993337;28;21021;-71
2023/06/18 11:59:44;;;;;;;75.50;2.80;;;38.60;3.30;;;;;;4993582;28;20697;-71
2023/06/18 12:02:12;;;;;;;72.37;2.23;;;39.70;2.10;;;;;;4993630;28;20409;-72
2023/06/18 12:04:38;;;;;;;72.73;2.43;;;40.10;2.20;;;;;;4993330;28;20417;-72
2023/06/18 12:07:05;;;;;;;71.20;2.13;;;40.70;2.50;;;;;;4993105;28;20875;-72
2023/06/18 12:09:35;;;;;;;71.30;2.30;;;40.80;2.30;;;;;;4993421;28;20428;-71
2023/06/18 12:12:07;;;;;;;70.47;2.30;;;40.90;1.00;;;;;;4993621;28;20400;-71
2023/06/18 12:14:37;;;;;;;69.37;2.23;;;40.50;1.80;;;;;;4993135;28;20780;-71
2023/06/18 12:17:18;;;;;;;69.30;2.33;;;39.20;2.10;;;;;;4993239;28;20524;-71
2023/06/18 12:19:51;;;;;;;69.17;2.30;;;38.50;2.80;;;;;;4993124;28;20464;-71
2023/06/18 12:22:16;;;;;;;69.40;2.40;;;38.40;2.90;;;;;;4993014;28;20405;-71
2023/06/18 12:24:43;;;;;;;68.10;2.00;;;38.20;2.50;;;;;;4992880;28;20409;-71
2023/06/18 12:27:09;;;;;;;68.80;2.43;;;37.90;2.80;;;;;;4993085;28;20197;-71
2023/06/18 12:29:34;;;;;;;68.20;2.30;;;37.90;2.40;;;;;;4992852;28;20790;-71
2023/06/18 12:32:04;;;;;;;68.30;2.30;;;36.20;3.90;;;;;;4992930;28;20252;-71
2023/06/18 12:34:34;;;;;;;67.87;2.23;;;36.70;4.20;;;;;;4992820;28;20173;-72
2023/06/18 12:36:59;;;;;;;67.73;2.20;;;37.70;3.10;;;;;;4992801;28;20452;-71
2023/06/18 12:39:25;;;;;;;66.80;1.83;;;37.60;3.80;;;;;;4992753;28;20547;-71